Time;durP1;ratioP1;P1;durP2;ratioP2;P2;SDS_P1;SDS_P2;PMS_P1;PMS_P2;Temp;Humidity;BMP_temperature;BMP_pressure;BME280_temperature;BME280_humidity;BME280_pressure;Samples;Min_cycle;Max_cycle;Signal;HPM_P1;HPM_P2
2021/08/31 00:01:43;;;;;;;4.95;4.47;;;;;;;15.69;100.00;95734.59;5042709;23;20225;-89
2021/08/31 00:04:14;;;;;;;4.60;4.20;;;;;;;15.70;100.00;95741.38;5009279;28;20209;-90
2021/08/31 00:07:04;;;;;;;5.00;4.50;;;;;;;15.66;100.00;95737.59;5009660;28;20249;-89
2021/08/31 00:09:35;;;;;;;6.18;5.28;;;;;;;15.70;100.00;95736.19;5015221;23;20686;-89
2021/08/31 00:12:24;;;;;;;5.22;4.72;;;;;;;15.74;100.00;95737.38;5010911;28;20199;-88
2021/08/31 00:14:56;;;;;;;5.30;4.15;;;;;;;15.75;100.00;95742.38;5012657;28;20218;-90
2021/08/31 00:17:42;;;;;;;5.05;4.65;;;;;;;15.73;100.00;95738.38;5013619;28;20214;-89
2021/08/31 00:20:18;;;;;;;4.72;4.22;;;;;;;15.68;100.00;95731.19;5013136;28;20309;-90
2021/08/31 00:22:49;;;;;;;4.80;4.40;;;;;;;15.72;100.00;95739.38;5013322;28;20314;-90
2021/08/31 00:25:43;;;;;;;5.60;5.07;;;;;;;15.72;100.00;95747.16;5013268;28;20206;-89
2021/08/31 00:28:20;;;;;;;5.40;4.90;;;;;;;15.64;100.00;95742.97;5013759;28;20214;-89
2021/08/31 00:30:56;;;;;;;7.40;5.10;;;;;;;15.64;100.00;95742.97;5012711;28;20222;-90
2021/08/31 00:33:33;;;;;;;5.68;5.18;;;;;;;15.57;100.00;95751.81;5003661;28;20237;-90
2021/08/31 00:36:08;;;;;;;5.47;4.97;;;;;;;15.54;100.00;95742.59;5010517;28;20253;-89
2021/08/31 00:38:56;;;;;;;6.00;5.40;;;;;;;15.56;100.00;95752.81;5012957;28;20198;-89
2021/08/31 00:41:22;;;;;;;5.80;5.20;;;;;;;15.59;100.00;95752.41;5012556;28;20887;-89
2021/08/31 00:43:52;;;;;;;5.45;4.93;;;;;;;15.62;100.00;95755.38;5012500;28;20272;-91
2021/08/31 00:46:23;;;;;;;5.45;4.90;;;;;;;15.64;100.00;95752.56;5012456;28;20202;-89
2021/08/31 00:48:51;;;;;;;6.00;5.18;;;;;;;15.62;100.00;95754.56;5012849;28;20711;-89
2021/08/31 00:51:31;;;;;;;7.87;5.53;;;;;;;15.65;100.00;95764.53;5012778;28;20235;-89
2021/08/31 00:54:20;;;;;;;5.47;4.97;;;;;;;15.66;100.00;95761.75;5012494;28;20206;-89
2021/08/31 00:57:13;;;;;;;5.70;5.20;;;;;;;15.61;100.00;95753.78;5012625;28;20203;-89
2021/08/31 00:59:46;;;;;;;6.38;5.60;;;;;;;15.58;100.00;95762.00;5012460;28;20679;-90
2021/08/31 01:02:24;;;;;;;6.32;5.65;;;;;;;15.53;100.00;95766.94;5012158;28;20199;-89
2021/08/31 01:04:51;;;;;;;6.00;5.40;;;;;;;15.54;100.00;95769.34;5012838;28;20203;-89
2021/08/31 01:07:18;;;;;;;6.03;5.43;;;;;;;15.57;100.00;95765.59;5012793;28;20206;-89
2021/08/31 01:09:49;;;;;;;6.17;5.50;;;;;;;15.61;100.00;95773.72;5012019;28;20714;-89
2021/08/31 01:12:23;;;;;;;5.87;5.27;;;;;;;15.64;100.00;95775.94;5012622;28;20210;-90
2021/08/31 01:14:52;;;;;;;6.57;5.87;;;;;;;15.59;100.00;95776.53;5012265;28;20300;-89
2021/08/31 01:17:24;;;;;;;8.10;5.67;;;;;;;15.60;100.00;95772.94;5011635;28;20198;-89
2021/08/31 01:19:53;;;;;;;6.60;5.80;;;;;;;15.63;100.00;95771.72;5011754;28;20226;-88
2021/08/31 01:22:40;;;;;;;6.50;5.70;;;;;;;15.56;100.00;95770.97;5011882;28;20717;-89
2021/08/31 01:25:15;;;;;;;6.20;5.60;;;;;;;15.60;100.00;95772.94;5002443;28;20202;-90
2021/08/31 01:27:50;;;;;;;9.57;6.20;;;;;;;15.65;100.00;95774.94;5012461;28;20202;-88
2021/08/31 01:30:20;;;;;;;7.07;6.23;;;;;;;15.66;100.00;95766.94;5011457;28;20641;-89
2021/08/31 01:33:11;;;;;;;6.93;6.23;;;;;;;15.68;100.00;95772.72;5001468;28;20231;-89
2021/08/31 01:35:44;;;;;;;7.57;6.80;;;;;;;15.66;100.00;95769.53;5011309;28;20710;-89
2021/08/31 01:38:11;;;;;;;6.93;6.05;;;;;;;15.69;100.00;95782.13;5011548;28;20866;-88
2021/08/31 01:40:43;;;;;;;7.22;6.53;;;;;;;15.71;100.00;95771.53;5011302;28;20265;-90
2021/08/31 01:43:19;;;;;;;6.70;6.10;;;;;;;15.70;100.00;95780.31;5011866;28;20202;-89
2021/08/31 01:45:57;;;;;;;6.93;6.23;;;;;;;15.67;100.00;95773.72;5011535;28;20219;-89
2021/08/31 01:48:28;;;;;;;7.23;6.53;;;;;;;15.66;100.00;95773.94;5011799;28;20209;-90
2021/08/31 01:51:03;;;;;;;7.27;6.57;;;;;;;15.68;100.00;95779.72;5011128;28;20257;-89
2021/08/31 01:53:30;;;;;;;8.75;5.93;;;;;;;15.64;100.00;95775.94;5011509;28;20249;-89
2021/08/31 01:56:26;;;;;;;7.40;6.70;;;;;;;15.62;100.00;95789.09;5011220;28;20246;-89
2021/08/31 01:58:55;;;;;;;7.35;6.60;;;;;;;15.65;100.00;95787.91;5011408;28;20195;-89
2021/08/31 02:01:24;;;;;;;7.27;6.43;;;;;;;15.62;100.00;95775.34;5010319;28;20934;-89
2021/08/31 02:03:51;;;;;;;7.70;6.87;;;;;;;15.61;100.00;95771.13;5011194;28;20198;-90
2021/08/31 02:06:42;;;;;;;7.17;6.47;;;;;;;15.65;100.00;95778.31;5010996;28;20206;-89
2021/08/31 02:09:16;;;;;;;7.57;6.03;;;;;;;15.68;100.00;95779.72;5011020;28;20203;-89
2021/08/31 02:12:02;;;;;;;7.28;6.57;;;;;;;15.65;100.00;95775.72;5011100;28;20291;-88
2021/08/31 02:14:35;;;;;;;7.65;6.28;;;;;;;15.68;100.00;95775.31;5011411;28;20290;-89
2021/08/31 02:17:04;;;;;;;6.63;6.03;;;;;;;15.63;100.00;95775.13;5010959;28;20206;-89
2021/08/31 02:19:31;;;;;;;8.02;6.43;;;;;;;15.62;100.00;95781.31;5010964;28;20211;-89
2021/08/31 02:21:58;;;;;;;8.18;6.47;;;;;;;15.63;100.00;95780.31;5011119;28;20206;-89
2021/08/31 02:24:25;;;;;;;7.30;6.60;;;;;;;15.66;100.00;95787.72;5011025;28;20198;-89
2021/08/31 02:26:53;;;;;;;6.40;5.80;;;;;;;15.63;100.00;95785.50;5011001;28;20209;-89
2021/08/31 02:29:25;;;;;;;7.10;6.40;;;;;;;15.65;100.00;95786.13;5010763;28;20198;-88
2021/08/31 02:32:00;;;;;;;6.97;6.28;;;;;;;15.66;100.00;95787.72;5010481;28;20201;-89
2021/08/31 02:34:31;;;;;;;7.28;6.15;;;;;;;15.67;100.00;95791.91;5009830;28;20218;-89
2021/08/31 02:37:08;;;;;;;6.43;5.83;;;;;;;15.69;100.00;95794.28;5011440;28;20207;-89
2021/08/31 02:39:35;;;;;;;7.78;6.47;;;;;;;15.54;100.00;95784.91;5010799;28;20623;-90
2021/08/31 02:42:02;;;;;;;7.43;6.60;;;;;;;15.57;100.00;95788.13;5010700;28;20230;-88
2021/08/31 02:44:45;;;;;;;7.07;6.38;;;;;;;15.56;100.00;95782.16;5010439;28;20214;-88
2021/08/31 02:47:26;;;;;;;;;;;;;;;;;;;;;
2021/08/31 02:50:21;;;;;;;6.50;5.70;;;;;;;15.53;100.00;95785.13;4992642;28;20229;-89
2021/08/31 02:53:12;;;;;;;8.52;6.20;;;;;;;15.52;100.00;95794.69;4969353;28;20203;-89
2021/08/31 02:55:46;;;;;;;6.95;6.25;;;;;;;15.50;100.00;95785.50;4990792;28;20224;-89
2021/08/31 02:58:13;;;;;;;7.38;6.10;;;;;;;15.53;100.00;95787.72;4991008;28;20203;-90
2021/08/31 03:00:52;;;;;;;7.15;6.05;;;;;;;15.54;100.00;95779.72;5017928;23;20305;-89
2021/08/31 03:03:24;;;;;;;8.23;6.75;;;;;;;15.46;100.00;95782.53;5014594;28;20272;-89
2021/08/31 03:06:04;;;;;;;7.10;6.35;;;;;;;15.50;100.00;95777.72;5029501;28;20206;-89
2021/08/31 03:08:40;;;;;;;6.68;6.07;;;;;;;15.49;100.00;95792.50;5030026;28;20205;-88
2021/08/31 03:11:07;;;;;;;6.57;5.97;;;;;;;15.54;100.00;95790.09;5029419;28;20592;-89
2021/08/31 03:13:41;;;;;;;8.73;6.28;;;;;;;15.57;100.00;95794.13;5029650;28;20737;-89
2021/08/31 03:16:09;;;;;;;6.97;5.67;;;;;;;15.56;100.00;95789.94;5029737;28;20268;-89
2021/08/31 03:18:40;;;;;;;6.90;6.20;;;;;;;15.50;100.00;95791.50;5029801;28;20281;-89
2021/08/31 03:21:17;;;;;;;6.33;5.73;;;;;;;15.55;100.00;95793.50;5029709;28;20860;-89
2021/08/31 03:29:26;;;;;;;6.57;5.88;;;;;;;15.51;100.00;95800.09;5025884;28;20649;-89
2021/08/31 03:32:07;;;;;;;6.30;5.70;;;;;;;15.54;100.00;95804.88;5028843;28;20631;-89
2021/08/31 03:34:42;;;;;;;6.85;5.63;;;;;;;15.60;100.00;95811.06;5028171;28;20309;-89
2021/08/31 03:37:15;;;;;;;8.07;7.25;;;;;;;15.54;100.00;95810.88;5010001;28;20258;-90
2021/08/31 03:39:47;;;;;;;6.35;5.72;;;;;;;15.53;100.00;95809.28;5012571;28;20230;-89
2021/08/31 03:42:34;;;;;;;7.07;6.37;;;;;;;15.50;100.00;95811.47;5029041;28;20205;-88
2021/08/31 03:45:04;;;;;;;8.60;6.50;;;;;;;15.45;100.00;95812.06;5029426;28;20816;-90
2021/08/31 03:47:45;;;;;;;7.28;6.47;;;;;;;15.47;100.00;95807.47;5027227;28;20592;-89
2021/08/31 03:50:21;;;;;;;7.03;6.38;;;;;;;15.50;100.00;95814.06;5028597;28;20240;-89
2021/08/31 03:52:49;;;;;;;7.22;6.53;;;;;;;15.49;100.00;95815.84;5026975;28;20198;-89
2021/08/31 03:55:28;;;;;;;7.97;6.28;;;;;;;15.49;100.00;95828.84;5029086;28;20258;-90
2021/08/31 03:58:06;;;;;;;7.30;6.60;;;;;;;15.45;100.00;95824.22;5013311;28;20210;-87
2021/08/31 04:00:37;;;;;;;6.80;6.20;;;;;;;15.49;100.00;95828.03;5009156;28;20219;-88
2021/08/31 04:03:14;;;;;;;6.70;6.07;;;;;;;15.50;100.00;95833.03;5028276;28;20234;-86
2021/08/31 04:05:45;;;;;;;6.20;5.60;;;;;;;15.50;100.00;95834.81;5029107;28;20205;-87
2021/08/31 04:08:15;;;;;;;6.93;6.23;;;;;;;15.48;100.00;95840.22;5028682;28;20194;-87
2021/08/31 04:10:42;;;;;;;6.40;5.80;;;;;;;15.46;100.00;95842.19;5009323;28;20321;-87
2021/08/31 04:13:19;;;;;;;6.40;5.80;;;;;;;15.46;100.00;95841.41;5012186;28;20746;-89
2021/08/31 04:16:09;;;;;;;7.30;5.87;;;;;;;15.43;100.00;95849.59;5011571;28;20308;-89
2021/08/31 04:22:01;;;;;;;6.60;6.00;;;;;;;15.36;100.00;95854.78;4949834;29;20208;-89
2021/08/31 04:24:53;;;;;;;5.88;5.32;;;;;;;15.35;100.00;95855.00;5010613;28;20210;-90
2021/08/31 04:27:32;;;;;;;6.23;5.63;;;;;;;15.36;100.00;95862.56;5023958;28;20689;-89
2021/08/31 04:29:59;;;;;;;9.40;5.90;;;;;;;15.38;100.00;95860.59;5029430;28;20739;-89
2021/08/31 04:32:26;;;;;;;6.00;5.38;;;;;;;15.36;100.00;95854.78;5016587;28;20325;-88
2021/08/31 04:35:02;;;;;;;6.50;5.90;;;;;;;15.40;100.00;95853.38;5026804;28;20665;-89
2021/08/31 04:37:34;;;;;;;6.67;6.07;;;;;;;15.36;100.00;95856.59;5028670;28;20278;-89
2021/08/31 04:40:43;;;;;;;;;;;;;;;;;;;;;
2021/08/31 04:47:26;;;;;;;7.80;6.38;;;;;;;15.32;100.00;95870.94;4945680;29;20638;-89
2021/08/31 04:53:09;;;;;;;7.50;6.80;;;;;;;15.33;100.00;95867.38;5142841;23;20723;-88
2021/08/31 04:56:36;;;;;;;6.57;5.97;;;;;;;15.32;100.00;95860.56;4891816;29;20624;-88
2021/08/31 05:06:23;;;;;;;8.30;7.37;;;;;;;15.18;100.00;95867.56;4797932;29;20845;-87
2021/08/31 05:12:54;;;;;;;7.17;6.30;;;;;;;15.23;100.00;95874.72;4872945;29;20221;-89
2021/08/31 05:19:35;;;;;;;6.43;5.93;;;;;;;15.32;100.00;95878.72;4938563;28;20203;-89
2021/08/31 05:36:09;;;;;;;7.83;7.10;;;;;;;15.27;100.00;95892.28;4945544;28;20220;-90
2021/08/31 05:45:32;;;;;;;7.83;7.03;;;;;;;15.31;100.00;95898.69;5030851;28;20656;-88
2021/08/31 05:48:48;;;;;;;7.53;6.87;;;;;;;15.33;100.00;95896.69;5016734;28;20205;-89
2021/08/31 05:55:13;;;;;;;8.60;7.27;;;;;;;15.40;100.00;95899.28;4839062;29;20212;-92
2021/08/31 06:13:00;;;;;;;9.27;8.23;;;;;;;15.32;100.00;95902.88;4757699;30;20242;-90
2021/08/31 06:46:36;;;;;;;9.93;8.93;;;;;;;15.39;100.00;95923.66;5023364;28;20198;-90
2021/08/31 06:49:21;;;;;;;8.32;7.47;;;;;;;15.44;100.00;95923.84;5027816;28;20206;-89
2021/08/31 06:52:08;;;;;;;8.53;7.63;;;;;;;15.42;100.00;95929.22;5029216;28;20245;-88
2021/08/31 06:54:37;;;;;;;8.33;7.53;;;;;;;15.43;100.00;95927.44;5009727;28;20205;-89
2021/08/31 06:57:23;;;;;;;8.30;7.40;;;;;;;15.46;100.00;95927.84;5015248;28;20435;-89
2021/08/31 07:00:58;;;;;;;8.93;8.03;;;;;;;15.44;100.00;95929.03;5030760;28;20217;-90
2021/08/31 07:03:59;;;;;;;;;;;;;;;;;;;;;
2021/08/31 07:06:52;;;;;;;14.17;8.07;;;;;;;15.45;100.00;95933.22;4962717;28;20223;-89
2021/08/31 07:10:19;;;;;;;8.60;7.63;;;;;;;15.49;100.00;95929.25;4967838;28;20391;-89
2021/08/31 07:13:08;;;;;;;9.23;8.27;;;;;;;15.53;100.00;95928.66;4946300;28;20243;-89
2021/08/31 07:15:41;;;;;;;9.93;8.10;;;;;;;15.53;100.00;95931.25;4876582;29;20210;-89
2021/08/31 07:25:07;;;;;;;19.23;12.95;;;;;;;15.53;100.00;95943.44;5011023;28;20809;-88
2021/08/31 07:27:33;;;;;;;13.25;9.60;;;;;;;15.59;100.00;95955.63;5027648;28;20208;-89
2021/08/31 08:08:47;;;;;;;14.13;9.00;;;;;;;15.57;100.00;95980.22;4908781;29;20198;-92
2021/08/31 08:14:50;;;;;;;8.82;7.82;;;;;;;15.61;100.00;95981.38;4934909;28;20347;-89
2021/08/31 08:20:54;;;;;;;;;;;;;;;;;;;;;
2021/08/31 08:24:11;;;;;;;;;;;;;;;;;;;;;
2021/08/31 08:27:02;;;;;;;13.25;8.05;;;;;;;15.79;100.00;96005.78;5023975;28;20217;-90
2021/08/31 08:29:55;;;;;;;17.58;8.80;;;;;;;15.83;100.00;96000.97;5022915;28;20226;-91
2021/08/31 08:36:22;;;;;;;8.85;7.97;;;;;;;15.85;100.00;96011.97;4946821;28;20194;-89
2021/08/31 08:46:15;;;;;;;22.00;17.42;;;;;;;15.84;100.00;96023.34;4902683;28;20218;-90
2021/08/31 08:51:50;;;;;;;12.13;8.75;;;;;;;15.87;100.00;96026.38;5027077;28;20214;-90
2021/08/31 08:57:47;;;;;;;9.43;7.95;;;;;;;15.99;100.00;96023.97;5027093;28;20218;-90
2021/08/31 09:13:10;;;;;;;;;;;;;;;;;;;;;
2021/08/31 09:19:04;;;;;;;9.02;8.13;;;;;;;16.17;100.00;96016.38;5014739;28;20320;-89
2021/08/31 09:22:03;;;;;;;8.25;7.45;;;;;;;16.27;100.00;96021.19;4949128;29;20233;-90
2021/08/31 09:25:11;;;;;;;9.02;8.18;;;;;;;16.36;100.00;96025.16;4896416;29;20302;-89
2021/08/31 09:32:02;;;;;;;;;;;;;;;;;;;;;
2021/08/31 09:52:37;;;;;;;9.30;8.40;;;;;;;17.61;100.00;96027.38;3674612;23;20229;-89
2021/08/31 09:55:44;;;;;;;7.55;6.85;;;;;;;17.74;98.11;96029.13;5021876;28;20213;-89
2021/08/31 10:07:52;;;;;;;5.70;5.20;;;;;;;18.62;89.96;96021.25;5019224;28;20202;-89
2021/08/31 10:13:47;;;;;;;4.85;4.45;;;;;;;18.32;90.57;96026.31;4967787;28;20203;-90
2021/08/31 10:16:39;;;;;;;4.68;4.28;;;;;;;18.30;91.51;96029.13;5028917;28;20210;-89
2021/08/31 10:19:16;;;;;;;5.07;4.68;;;;;;;18.32;89.15;96017.69;5028708;28;20214;-90
2021/08/31 10:22:07;;;;;;;5.43;4.93;;;;;;;18.31;86.78;96024.69;5019636;28;20217;-89
2021/08/31 10:24:45;;;;;;;4.85;4.43;;;;;;;18.26;89.17;96030.59;5029299;28;20194;-89
2021/08/31 10:27:50;;;;;;;4.13;3.83;;;;;;;18.24;83.92;96034.41;5029407;28;20605;-89
2021/08/31 10:31:00;;;;;;;3.95;3.65;;;;;;;18.26;87.36;96035.00;5028846;28;20250;-89
2021/08/31 10:34:09;;;;;;;3.85;3.55;;;;;;;18.17;88.08;96036.25;5028728;28;20665;-89
2021/08/31 10:36:53;;;;;;;4.07;3.78;;;;;;;18.05;86.48;96035.34;5028919;28;20204;-88
2021/08/31 10:40:11;;;;;;;3.90;3.60;;;;;;;17.90;87.66;96049.47;5028473;28;20284;-89
2021/08/31 10:42:45;;;;;;;4.00;3.67;;;;;;;17.76;88.18;96036.75;5019431;28;20220;-89
2021/08/31 10:55:45;;;;;;;7.82;7.00;;;;;;;17.03;95.50;96063.06;4986913;28;20211;-89
2021/08/31 11:01:59;;;;;;;3.80;3.50;;;;;;;16.85;93.91;96061.13;4942141;28;20260;-89
2021/08/31 11:04:55;;;;;;;;;;;;;;;;;;;;;
2021/08/31 11:07:55;;;;;;;4.22;3.92;;;;;;;16.93;95.76;96070.53;4966342;28;20212;-89
2021/08/31 11:10:51;;;;;;;4.07;3.70;;;;;;;17.07;93.68;96066.06;4966650;28;20247;-90
2021/08/31 11:13:30;;;;;;;4.53;4.03;;;;;;;17.05;93.49;96071.47;4979784;28;20290;-89
2021/08/31 11:25:23;;;;;;;;;;;;;;;;;;;;;
2021/08/31 12:28:28;;;;;;;5.28;4.78;;;;;;;18.01;73.80;96112.34;4965130;28;20296;-90
2021/08/31 12:31:20;;;;;;;4.22;3.70;;;;;;;18.27;74.56;96105.16;5001744;28;20337;-89
2021/08/31 12:33:52;;;;;;;4.25;3.70;;;;;;;18.37;73.51;96098.66;5026691;28;20206;-88
2021/08/31 12:36:45;;;;;;;;;;;;;;;;;;;;;
2021/08/31 12:39:42;;;;;;;4.05;3.75;;;;;;;18.37;71.31;96091.66;5029641;28;20226;-88
2021/08/31 12:42:39;;;;;;;4.20;3.90;;;;;;;18.44;71.50;96096.81;5027634;28;20286;-90
2021/08/31 12:45:33;;;;;;;;;;;;;;;;;;;;;
2021/08/31 12:48:11;;;;;;;4.30;3.92;;;;;;;18.62;70.34;96099.50;5010287;28;20201;-89
2021/08/31 12:54:14;;;;;;;4.00;3.70;;;;;;;18.70;69.95;96098.41;4983233;28;20246;-88
2021/08/31 12:57:24;;;;;;;4.47;3.70;;;;;;;18.70;69.14;96096.59;5028055;28;20190;-89
2021/08/31 13:00:53;;;;;;;4.25;3.42;;;;;;;18.69;71.16;96100.22;5027679;28;20275;-88
2021/08/31 13:06:55;;;;;;;4.07;3.78;;;;;;;18.79;71.38;96094.53;4989518;28;20225;-89
2021/08/31 13:31:06;;;;;;;6.95;6.28;;;;;;;19.88;64.03;96089.28;4978993;28;20219;-89
2021/08/31 13:34:23;;;;;;;3.80;3.50;;;;;;;19.85;66.94;96084.50;4953162;28;20206;-90
2021/08/31 13:56:29;;;;;;;3.60;3.30;;;;;;;20.39;61.33;96084.56;4860853;29;20340;-90
2021/08/31 13:59:25;;;;;;;5.20;4.82;;;;;;;20.52;60.30;96086.97;4856057;29;20842;-88
2021/08/31 14:09:27;;;;;;;3.45;3.15;;;;;;;20.18;57.78;96093.69;4927228;28;20662;-89
2021/08/31 14:12:14;;;;;;;4.47;3.28;;;;;;;20.23;59.64;96094.59;5009729;28;20265;-90
2021/08/31 14:52:13;;;;;;;3.30;3.10;;;;;;;19.06;65.63;96113.31;4948288;28;20256;-88
2021/08/31 14:55:02;;;;;;;3.58;3.28;;;;;;;18.94;64.92;96108.84;5004778;28;20217;-88
2021/08/31 15:00:52;;;;;;;3.40;3.10;;;;;;;18.90;65.68;96107.66;5024391;28;20284;-88
2021/08/31 15:06:39;;;;;;;13.40;12.18;;;;;;;18.97;65.98;96102.38;4986007;28;20283;-88
2021/08/31 15:09:41;;;;;;;4.45;4.05;;;;;;;18.98;67.56;96099.56;5028595;28;20202;-88
2021/08/31 15:12:21;;;;;;;4.18;3.67;;;;;;;18.95;66.04;96097.38;5028135;28;20198;-91
2021/08/31 15:14:48;;;;;;;4.03;3.60;;;;;;;18.89;65.03;96095.63;5028546;28;20213;-88
2021/08/31 15:17:22;;;;;;;4.22;3.90;;;;;;;18.84;65.41;96094.69;5028096;28;20186;-88
2021/08/31 15:20:12;;;;;;;3.80;3.50;;;;;;;18.91;65.71;96096.22;5028071;28;20233;-88
2021/08/31 15:27:01;;;;;;;4.78;3.58;;;;;;;19.41;63.24;96098.72;4984178;28;20743;-88
2021/08/31 15:33:51;;;;;;;;;;;;;;;;;;;;;
2021/08/31 15:36:41;;;;;;;4.07;3.50;;;;;;;19.55;62.77;96107.22;4944202;28;20209;-88
2021/08/31 15:39:45;;;;;;;;;;;;;;;;;;;;;
2021/08/31 15:45:55;;;;;;;3.88;3.58;;;;;;;19.37;60.43;96097.53;4906072;29;20586;-89
2021/08/31 16:23:08;;;;;;;;;;;;;;;;;;;;;
2021/08/31 16:26:04;;;;;;;5.45;3.42;;;;;;;19.06;65.56;96131.59;4967463;28;20212;-90
2021/08/31 16:28:55;;;;;;;4.93;3.85;;;;;;;19.10;64.15;96135.38;5010109;28;20293;-89
2021/08/31 16:32:24;;;;;;;4.30;3.90;;;;;;;19.06;64.15;96136.81;4943757;28;20932;-91
2021/08/31 16:39:15;;;;;;;4.05;3.65;;;;;;;18.96;65.90;96132.09;4873482;29;20232;-90
2021/08/31 17:41:44;;;;;;;5.20;4.80;;;;;;;18.10;75.95;96165.81;4872337;29;20246;-89
2021/08/31 17:51:20;;;;;;;4.80;4.30;;;;;;;17.98;75.77;96190.94;4950125;29;20686;-88
2021/08/31 17:53:58;;;;;;;4.97;4.53;;;;;;;17.99;74.68;96190.72;4944668;29;20212;-90
2021/08/31 17:56:28;;;;;;;4.95;4.55;;;;;;;17.93;75.52;96194.16;4992554;28;20257;-88
2021/08/31 17:58:57;;;;;;;4.95;4.53;;;;;;;17.94;75.61;96199.16;4998621;28;20293;-85
2021/08/31 18:08:05;;;;;;;4.50;4.10;;;;;;;17.94;75.77;96212.19;4979744;28;20903;-87
2021/08/31 18:16:50;;;;;;;5.43;4.93;;;;;;;17.83;76.29;96215.44;4920832;29;20346;-88
2021/08/31 18:20:16;;;;;;;13.10;10.73;;;;;;;17.83;76.96;96222.47;4983860;28;20246;-88
2021/08/31 18:26:29;;;;;;;7.18;5.15;;;;;;;17.68;78.07;96230.53;4982104;28;20262;-88
2021/08/31 18:32:14;;;;;;;4.90;4.50;;;;;;;17.67;77.27;96236.75;5041640;23;20229;-88
2021/08/31 18:35:33;;;;;;;5.53;5.03;;;;;;;17.62;78.13;96241.72;5050608;28;20273;-88
2021/08/31 19:36:24;;;;;;;6.15;5.55;;;;;;;17.45;78.10;96270.00;4955077;28;20215;-88
2021/08/31 22:42:50;;;;;;;6.35;5.85;;;;;;;16.50;94.93;96358.72;4843047;29;20292;-89
2021/08/31 23:09:06;;;;;;;;;;;;;;;;;;;;;
2021/08/31 23:18:59;;;;;;;;;;;;;;;;;;;;;
2021/08/31 23:31:57;;;;;;;8.65;7.85;;;;;;;16.36;95.80;96364.81;4916568;28;20353;-89
2021/08/31 23:41:32;;;;;;;9.50;8.70;;;;;;;16.36;95.24;96370.03;5000771;28;20341;-90
2021/08/31 23:44:29;;;;;;;8.88;8.15;;;;;;;16.38;95.15;96371.44;5010693;28;20209;-89
2021/08/31 23:47:42;;;;;;;8.60;7.70;;;;;;;16.36;95.56;96370.81;5002746;28;20260;-90
2021/08/31 23:57:22;;;;;;;8.90;8.13;;;;;;;16.32;96.06;96377.44;4957635;28;20951;-88
